Terminal Aerodrome Forecast
Issued by NWS

Home | Current Version | Previous Version | Text Only | Print | Product List | Glossary On
Versions: 1 2 3 4 5 6 7 8 9 10 11 12 13 14 15 16 17 18 19 20 21 22 23 24 25 26 27 28
000
FTUS45 KPSR 211400 AAA
TAFPHX
TAF AMD
KPHX 211458Z 2115/2212 10004KT P6SM SCT250
     FM220000 29005KT P6SM FEW250
     FM220600 10005KT P6SM FEW250=

USA.gov is the U.S. government's official web portal to all federal, state and local government web resources and services.